sensor_id;sensor_type;location;lat;lon;timestamp;P1;durP1;ratioP1;P2;durP2;ratioP2
36547;SDS011;22551;52.206;4.856;2022-11-15T00:00:18;54.92;;;20.08;;
36547;SDS011;22551;52.206;4.856;2022-11-15T00:05:23;60.25;;;20.13;;
36547;SDS011;22551;52.206;4.856;2022-11-15T00:10:26;51.10;;;19.25;;
36547;SDS011;22551;52.206;4.856;2022-11-15T00:15:29;53.65;;;18.77;;
36547;SDS011;22551;52.206;4.856;2022-11-15T00:20:33;48.75;;;18.98;;
36547;SDS011;22551;52.206;4.856;2022-11-15T00:25:35;49.35;;;18.63;;
36547;SDS011;22551;52.206;4.856;2022-11-15T00:30:39;47.30;;;18.02;;
36547;SDS011;22551;52.206;4.856;2022-11-15T00:35:41;41.80;;;18.50;;
36547;SDS011;22551;52.206;4.856;2022-11-15T00:40:43;49.25;;;18.67;;
36547;SDS011;22551;52.206;4.856;2022-11-15T00:45:47;52.85;;;18.80;;
36547;SDS011;22551;52.206;4.856;2022-11-15T00:50:49;40.40;;;16.58;;
36547;SDS011;22551;52.206;4.856;2022-11-15T00:55:52;51.50;;;18.30;;
36547;SDS011;22551;52.206;4.856;2022-11-15T01:00:56;54.90;;;17.77;;
36547;SDS011;22551;52.206;4.856;2022-11-15T01:05:58;50.83;;;17.25;;
36547;SDS011;22551;52.206;4.856;2022-11-15T01:11:01;53.90;;;19.63;;
36547;SDS011;22551;52.206;4.856;2022-11-15T01:16:07;54.33;;;18.30;;
36547;SDS011;22551;52.206;4.856;2022-11-15T01:21:12;50.35;;;18.17;;
36547;SDS011;22551;52.206;4.856;2022-11-15T01:26:17;61.30;;;18.75;;
36547;SDS011;22551;52.206;4.856;2022-11-15T01:31:20;57.08;;;18.88;;
36547;SDS011;22551;52.206;4.856;2022-11-15T01:36:23;50.58;;;18.83;;
36547;SDS011;22551;52.206;4.856;2022-11-15T01:41:27;56.97;;;20.45;;
36547;SDS011;22551;52.206;4.856;2022-11-15T01:46:33;52.55;;;19.25;;
36547;SDS011;22551;52.206;4.856;2022-11-15T01:51:37;59.70;;;20.15;;
36547;SDS011;22551;52.206;4.856;2022-11-15T01:56:40;58.17;;;20.55;;
36547;SDS011;22551;52.206;4.856;2022-11-15T02:01:50;58.20;;;20.00;;
36547;SDS011;22551;52.206;4.856;2022-11-15T02:06:53;68.90;;;20.83;;
36547;SDS011;22551;52.206;4.856;2022-11-15T02:11:55;63.78;;;22.15;;
36547;SDS011;22551;52.206;4.856;2022-11-15T02:17:01;62.40;;;20.40;;
36547;SDS011;22551;52.206;4.856;2022-11-15T02:22:14;57.75;;;20.98;;
36547;SDS011;22551;52.206;4.856;2022-11-15T02:33:10;63.55;;;19.75;;
36547;SDS011;22551;52.206;4.856;2022-11-15T02:38:25;57.55;;;20.08;;
36547;SDS011;22551;52.206;4.856;2022-11-15T02:43:36;57.95;;;19.05;;
36547;SDS011;22551;52.206;4.856;2022-11-15T02:49:00;56.47;;;20.70;;
36547;SDS011;22551;52.206;4.856;2022-11-15T02:59:37;66.65;;;20.95;;
36547;SDS011;22551;52.206;4.856;2022-11-15T03:05:07;78.72;;;21.67;;
36547;SDS011;22551;52.206;4.856;2022-11-15T03:10:21;79.40;;;22.45;;
36547;SDS011;22551;52.206;4.856;2022-11-15T03:15:28;55.05;;;19.45;;
36547;SDS011;22551;52.206;4.856;2022-11-15T03:20:35;66.53;;;21.95;;
36547;SDS011;22551;52.206;4.856;2022-11-15T03:25:40;67.77;;;21.27;;
36547;SDS011;22551;52.206;4.856;2022-11-15T03:30:47;78.00;;;22.45;;
36547;SDS011;22551;52.206;4.856;2022-11-15T03:35:55;60.65;;;21.60;;
36547;SDS011;22551;52.206;4.856;2022-11-15T03:40:58;76.28;;;21.55;;
36547;SDS011;22551;52.206;4.856;2022-11-15T03:46:04;72.85;;;22.83;;
36547;SDS011;22551;52.206;4.856;2022-11-15T03:51:14;57.90;;;22.30;;
36547;SDS011;22551;52.206;4.856;2022-11-15T03:56:16;59.05;;;20.55;;
36547;SDS011;22551;52.206;4.856;2022-11-15T04:01:18;49.75;;;20.02;;
36547;SDS011;22551;52.206;4.856;2022-11-15T04:06:22;51.40;;;20.33;;
36547;SDS011;22551;52.206;4.856;2022-11-15T04:11:24;58.75;;;21.20;;
36547;SDS011;22551;52.206;4.856;2022-11-15T04:16:26;42.33;;;19.42;;
36547;SDS011;22551;52.206;4.856;2022-11-15T04:21:30;47.28;;;18.70;;
36547;SDS011;22551;52.206;4.856;2022-11-15T04:26:50;48.45;;;18.35;;
36547;SDS011;22551;52.206;4.856;2022-11-15T04:31:52;43.42;;;18.55;;
36547;SDS011;22551;52.206;4.856;2022-11-15T04:36:55;42.95;;;19.10;;
36547;SDS011;22551;52.206;4.856;2022-11-15T04:42:13;45.85;;;17.75;;
36547;SDS011;22551;52.206;4.856;2022-11-15T04:47:15;40.83;;;16.60;;
36547;SDS011;22551;52.206;4.856;2022-11-15T04:52:18;42.88;;;18.52;;
36547;SDS011;22551;52.206;4.856;2022-11-15T04:57:21;41.13;;;16.73;;
36547;SDS011;22551;52.206;4.856;2022-11-15T05:02:23;40.78;;;17.58;;
36547;SDS011;22551;52.206;4.856;2022-11-15T05:07:46;37.35;;;17.48;;
36547;SDS011;22551;52.206;4.856;2022-11-15T05:12:49;36.10;;;15.88;;
36547;SDS011;22551;52.206;4.856;2022-11-15T05:17:56;40.63;;;17.88;;
36547;SDS011;22551;52.206;4.856;2022-11-15T05:23:00;37.63;;;15.13;;
36547;SDS011;22551;52.206;4.856;2022-11-15T05:28:03;38.25;;;15.85;;
36547;SDS011;22551;52.206;4.856;2022-11-15T05:33:05;34.63;;;14.85;;
36547;SDS011;22551;52.206;4.856;2022-11-15T05:38:09;31.63;;;15.80;;
36547;SDS011;22551;52.206;4.856;2022-11-15T05:43:11;36.75;;;15.68;;
36547;SDS011;22551;52.206;4.856;2022-11-15T05:48:14;42.63;;;15.48;;
36547;SDS011;22551;52.206;4.856;2022-11-15T05:53:18;30.05;;;14.00;;
36547;SDS011;22551;52.206;4.856;2022-11-15T05:58:23;37.05;;;16.15;;
36547;SDS011;22551;52.206;4.856;2022-11-15T06:03:25;36.95;;;13.95;;
36547;SDS011;22551;52.206;4.856;2022-11-15T06:08:28;31.42;;;14.68;;
36547;SDS011;22551;52.206;4.856;2022-11-15T06:13:31;31.45;;;14.27;;
36547;SDS011;22551;52.206;4.856;2022-11-15T06:18:33;26.25;;;14.02;;
36547;SDS011;22551;52.206;4.856;2022-11-15T06:23:37;28.42;;;12.98;;
36547;SDS011;22551;52.206;4.856;2022-11-15T06:28:40;35.05;;;14.38;;
36547;SDS011;22551;52.206;4.856;2022-11-15T06:33:42;32.20;;;13.98;;
36547;SDS011;22551;52.206;4.856;2022-11-15T06:38:45;29.35;;;13.45;;
36547;SDS011;22551;52.206;4.856;2022-11-15T06:43:48;25.70;;;12.57;;
36547;SDS011;22551;52.206;4.856;2022-11-15T06:48:50;27.80;;;12.98;;
36547;SDS011;22551;52.206;4.856;2022-11-15T06:53:54;27.88;;;12.20;;
36547;SDS011;22551;52.206;4.856;2022-11-15T06:58:56;31.95;;;12.18;;
36547;SDS011;22551;52.206;4.856;2022-11-15T07:03:58;31.40;;;13.98;;
36547;SDS011;22551;52.206;4.856;2022-11-15T07:09:03;34.17;;;13.15;;
36547;SDS011;22551;52.206;4.856;2022-11-15T07:14:05;24.52;;;12.13;;
36547;SDS011;22551;52.206;4.856;2022-11-15T07:19:08;25.90;;;12.43;;
36547;SDS011;22551;52.206;4.856;2022-11-15T07:24:12;24.13;;;12.38;;
36547;SDS011;22551;52.206;4.856;2022-11-15T07:29:14;28.15;;;10.60;;
36547;SDS011;22551;52.206;4.856;2022-11-15T07:34:19;27.30;;;11.27;;
36547;SDS011;22551;52.206;4.856;2022-11-15T07:39:22;21.38;;;10.43;;
36547;SDS011;22551;52.206;4.856;2022-11-15T07:44:25;24.98;;;10.85;;
36547;SDS011;22551;52.206;4.856;2022-11-15T07:49:27;24.95;;;10.82;;
36547;SDS011;22551;52.206;4.856;2022-11-15T07:54:33;20.08;;;11.48;;
36547;SDS011;22551;52.206;4.856;2022-11-15T07:59:35;24.02;;;11.48;;
36547;SDS011;22551;52.206;4.856;2022-11-15T08:04:38;27.08;;;10.70;;
36547;SDS011;22551;52.206;4.856;2022-11-15T08:09:41;24.52;;;10.60;;
36547;SDS011;22551;52.206;4.856;2022-11-15T08:14:43;22.67;;;11.15;;
36547;SDS011;22551;52.206;4.856;2022-11-15T08:19:45;24.23;;;11.88;;
36547;SDS011;22551;52.206;4.856;2022-11-15T08:24:49;22.27;;;11.18;;
36547;SDS011;22551;52.206;4.856;2022-11-15T08:29:51;26.83;;;10.43;;
36547;SDS011;22551;52.206;4.856;2022-11-15T08:34:53;23.73;;;9.85;;
36547;SDS011;22551;52.206;4.856;2022-11-15T08:39:57;17.30;;;9.02;;
36547;SDS011;22551;52.206;4.856;2022-11-15T08:45:00;19.67;;;9.15;;
36547;SDS011;22551;52.206;4.856;2022-11-15T08:50:02;21.52;;;10.35;;
36547;SDS011;22551;52.206;4.856;2022-11-15T08:55:07;20.40;;;9.25;;
36547;SDS011;22551;52.206;4.856;2022-11-15T09:00:10;20.07;;;8.40;;
36547;SDS011;22551;52.206;4.856;2022-11-15T09:05:13;17.80;;;8.63;;
36547;SDS011;22551;52.206;4.856;2022-11-15T09:10:18;14.98;;;6.82;;
36547;SDS011;22551;52.206;4.856;2022-11-15T09:15:20;15.38;;;7.20;;
36547;SDS011;22551;52.206;4.856;2022-11-15T09:20:22;15.07;;;6.90;;
36547;SDS011;22551;52.206;4.856;2022-11-15T09:25:26;14.15;;;7.22;;
36547;SDS011;22551;52.206;4.856;2022-11-15T09:30:28;14.40;;;7.53;;
36547;SDS011;22551;52.206;4.856;2022-11-15T09:35:31;21.05;;;8.10;;
36547;SDS011;22551;52.206;4.856;2022-11-15T09:40:35;18.63;;;7.53;;
36547;SDS011;22551;52.206;4.856;2022-11-15T09:45:40;16.17;;;7.00;;
36547;SDS011;22551;52.206;4.856;2022-11-15T09:50:51;15.75;;;6.03;;
36547;SDS011;22551;52.206;4.856;2022-11-15T09:56:01;12.77;;;5.72;;
36547;SDS011;22551;52.206;4.856;2022-11-15T10:01:16;12.50;;;5.72;;
36547;SDS011;22551;52.206;4.856;2022-11-15T10:06:26;12.00;;;5.13;;
36547;SDS011;22551;52.206;4.856;2022-11-15T10:11:31;11.65;;;4.63;;
36547;SDS011;22551;52.206;4.856;2022-11-15T10:16:41;14.82;;;4.95;;
36547;SDS011;22551;52.206;4.856;2022-11-15T10:22:21;10.60;;;4.35;;
36547;SDS011;22551;52.206;4.856;2022-11-15T10:27:31;7.22;;;3.90;;
36547;SDS011;22551;52.206;4.856;2022-11-15T10:32:33;12.65;;;4.25;;
36547;SDS011;22551;52.206;4.856;2022-11-15T10:37:38;8.55;;;4.50;;
36547;SDS011;22551;52.206;4.856;2022-11-15T10:42:42;7.93;;;3.88;;
36547;SDS011;22551;52.206;4.856;2022-11-15T10:47:44;5.85;;;3.53;;
36547;SDS011;22551;52.206;4.856;2022-11-15T10:52:46;8.10;;;4.32;;
36547;SDS011;22551;52.206;4.856;2022-11-15T10:57:51;8.60;;;3.72;;
36547;SDS011;22551;52.206;4.856;2022-11-15T11:03:00;7.32;;;3.40;;
36547;SDS011;22551;52.206;4.856;2022-11-15T11:08:19;8.85;;;2.78;;
36547;SDS011;22551;52.206;4.856;2022-11-15T11:13:26;13.30;;;3.28;;
36547;SDS011;22551;52.206;4.856;2022-11-15T11:18:32;7.90;;;2.80;;
36547;SDS011;22551;52.206;4.856;2022-11-15T11:23:43;3.95;;;2.83;;
36547;SDS011;22551;52.206;4.856;2022-11-15T11:28:54;7.55;;;2.50;;
36547;SDS011;22551;52.206;4.856;2022-11-15T11:34:05;5.43;;;2.20;;
36547;SDS011;22551;52.206;4.856;2022-11-15T11:39:19;7.43;;;3.30;;
36547;SDS011;22551;52.206;4.856;2022-11-15T11:44:32;2.95;;;1.67;;
36547;SDS011;22551;52.206;4.856;2022-11-15T11:49:43;8.30;;;1.42;;
36547;SDS011;22551;52.206;4.856;2022-11-15T11:54:54;4.05;;;2.05;;
36547;SDS011;22551;52.206;4.856;2022-11-15T12:00:12;4.88;;;2.00;;
36547;SDS011;22551;52.206;4.856;2022-11-15T12:05:22;5.82;;;2.00;;
36547;SDS011;22551;52.206;4.856;2022-11-15T12:10:30;10.02;;;1.67;;
36547;SDS011;22551;52.206;4.856;2022-11-15T12:15:39;4.45;;;1.23;;
36547;SDS011;22551;52.206;4.856;2022-11-15T12:20:50;2.88;;;0.95;;
36547;SDS011;22551;52.206;4.856;2022-11-15T12:25:58;4.43;;;1.48;;
36547;SDS011;22551;52.206;4.856;2022-11-15T12:31:10;3.10;;;1.10;;
36547;SDS011;22551;52.206;4.856;2022-11-15T12:36:30;3.90;;;1.13;;
36547;SDS011;22551;52.206;4.856;2022-11-15T12:41:40;1.77;;;1.00;;
36547;SDS011;22551;52.206;4.856;2022-11-15T12:47:04;4.05;;;0.95;;
36547;SDS011;22551;52.206;4.856;2022-11-15T12:52:25;3.50;;;0.60;;
36547;SDS011;22551;52.206;4.856;2022-11-15T12:57:35;2.17;;;0.77;;
36547;SDS011;22551;52.206;4.856;2022-11-15T13:02:43;7.03;;;0.88;;
36547;SDS011;22551;52.206;4.856;2022-11-15T13:07:55;2.33;;;0.47;;
36547;SDS011;22551;52.206;4.856;2022-11-15T13:12:59;2.97;;;0.60;;
36547;SDS011;22551;52.206;4.856;2022-11-15T13:23:32;2.97;;;0.65;;
36547;SDS011;22551;52.206;4.856;2022-11-15T13:28:36;8.57;;;1.00;;
36547;SDS011;22551;52.206;4.856;2022-11-15T13:33:44;5.75;;;0.77;;
36547;SDS011;22551;52.206;4.856;2022-11-15T13:38:53;2.15;;;0.75;;
36547;SDS011;22551;52.206;4.856;2022-11-15T13:43:58;6.43;;;0.93;;
36547;SDS011;22551;52.206;4.856;2022-11-15T13:49:03;6.93;;;0.85;;
36547;SDS011;22551;52.206;4.856;2022-11-15T13:54:14;6.55;;;1.00;;
36547;SDS011;22551;52.206;4.856;2022-11-15T13:59:23;2.03;;;0.68;;
36547;SDS011;22551;52.206;4.856;2022-11-15T14:04:29;5.30;;;0.68;;
36547;SDS011;22551;52.206;4.856;2022-11-15T14:09:35;3.05;;;0.95;;
36547;SDS011;22551;52.206;4.856;2022-11-15T14:14:44;3.45;;;0.77;;
36547;SDS011;22551;52.206;4.856;2022-11-15T14:19:49;3.50;;;0.93;;
36547;SDS011;22551;52.206;4.856;2022-11-15T14:25:07;2.88;;;0.50;;
36547;SDS011;22551;52.206;4.856;2022-11-15T14:30:18;10.13;;;1.25;;
36547;SDS011;22551;52.206;4.856;2022-11-15T14:35:22;5.60;;;1.73;;
36547;SDS011;22551;52.206;4.856;2022-11-15T14:40:25;4.22;;;0.60;;
36547;SDS011;22551;52.206;4.856;2022-11-15T14:45:27;2.83;;;0.43;;
36547;SDS011;22551;52.206;4.856;2022-11-15T14:50:31;2.13;;;0.50;;
36547;SDS011;22551;52.206;4.856;2022-11-15T14:55:35;3.38;;;0.70;;
36547;SDS011;22551;52.206;4.856;2022-11-15T15:00:38;5.55;;;0.80;;
36547;SDS011;22551;52.206;4.856;2022-11-15T15:05:43;1.83;;;0.90;;
36547;SDS011;22551;52.206;4.856;2022-11-15T15:10:46;7.45;;;1.27;;
36547;SDS011;22551;52.206;4.856;2022-11-15T15:15:48;5.90;;;1.45;;
36547;SDS011;22551;52.206;4.856;2022-11-15T15:20:55;4.72;;;1.10;;
36547;SDS011;22551;52.206;4.856;2022-11-15T15:26:03;3.65;;;1.10;;
36547;SDS011;22551;52.206;4.856;2022-11-15T15:31:05;2.28;;;0.90;;
36547;SDS011;22551;52.206;4.856;2022-11-15T15:36:11;3.80;;;0.80;;
36547;SDS011;22551;52.206;4.856;2022-11-15T15:41:15;8.05;;;1.50;;
36547;SDS011;22551;52.206;4.856;2022-11-15T15:46:18;2.65;;;1.23;;
36547;SDS011;22551;52.206;4.856;2022-11-15T15:51:23;1.90;;;0.98;;
36547;SDS011;22551;52.206;4.856;2022-11-15T15:56:25;3.28;;;1.45;;
36547;SDS011;22551;52.206;4.856;2022-11-15T16:01:28;4.32;;;1.15;;
36547;SDS011;22551;52.206;4.856;2022-11-15T16:06:38;2.78;;;0.82;;
36547;SDS011;22551;52.206;4.856;2022-11-15T16:11:45;4.50;;;0.70;;
36547;SDS011;22551;52.206;4.856;2022-11-15T16:16:47;2.30;;;0.60;;
36547;SDS011;22551;52.206;4.856;2022-11-15T16:21:51;4.18;;;1.20;;
36547;SDS011;22551;52.206;4.856;2022-11-15T16:26:53;2.97;;;0.70;;
36547;SDS011;22551;52.206;4.856;2022-11-15T16:31:55;3.17;;;1.15;;
36547;SDS011;22551;52.206;4.856;2022-11-15T16:36:59;2.65;;;0.95;;
36547;SDS011;22551;52.206;4.856;2022-11-15T16:42:01;4.38;;;1.23;;
36547;SDS011;22551;52.206;4.856;2022-11-15T16:47:03;3.38;;;1.00;;
36547;SDS011;22551;52.206;4.856;2022-11-15T16:52:07;6.45;;;1.70;;
36547;SDS011;22551;52.206;4.856;2022-11-15T16:57:09;2.28;;;0.90;;
36547;SDS011;22551;52.206;4.856;2022-11-15T17:02:12;3.25;;;1.60;;
36547;SDS011;22551;52.206;4.856;2022-11-15T17:07:18;6.75;;;1.80;;
36547;SDS011;22551;52.206;4.856;2022-11-15T17:12:20;4.50;;;1.52;;
36547;SDS011;22551;52.206;4.856;2022-11-15T17:17:24;4.88;;;1.50;;
36547;SDS011;22551;52.206;4.856;2022-11-15T17:22:28;4.15;;;1.60;;
36547;SDS011;22551;52.206;4.856;2022-11-15T17:27:30;5.97;;;1.67;;
36547;SDS011;22551;52.206;4.856;2022-11-15T17:32:34;7.75;;;2.20;;
36547;SDS011;22551;52.206;4.856;2022-11-15T17:37:40;6.55;;;1.58;;
36547;SDS011;22551;52.206;4.856;2022-11-15T17:42:42;7.88;;;1.83;;
36547;SDS011;22551;52.206;4.856;2022-11-15T17:47:48;7.90;;;2.43;;
36547;SDS011;22551;52.206;4.856;2022-11-15T17:52:55;7.00;;;3.20;;
36547;SDS011;22551;52.206;4.856;2022-11-15T17:58:00;5.55;;;2.20;;
36547;SDS011;22551;52.206;4.856;2022-11-15T18:03:03;3.97;;;1.90;;
36547;SDS011;22551;52.206;4.856;2022-11-15T18:08:10;6.72;;;2.15;;
36547;SDS011;22551;52.206;4.856;2022-11-15T18:13:16;6.15;;;2.92;;
36547;SDS011;22551;52.206;4.856;2022-11-15T18:18:19;3.95;;;1.70;;
36547;SDS011;22551;52.206;4.856;2022-11-15T18:23:22;5.50;;;1.92;;
36547;SDS011;22551;52.206;4.856;2022-11-15T18:28:28;5.22;;;2.65;;
36547;SDS011;22551;52.206;4.856;2022-11-15T18:33:37;3.97;;;2.53;;
36547;SDS011;22551;52.206;4.856;2022-11-15T18:38:40;3.92;;;2.40;;
36547;SDS011;22551;52.206;4.856;2022-11-15T18:43:43;8.05;;;3.13;;
36547;SDS011;22551;52.206;4.856;2022-11-15T18:48:46;3.55;;;2.60;;
36547;SDS011;22551;52.206;4.856;2022-11-15T18:53:52;6.88;;;3.67;;
36547;SDS011;22551;52.206;4.856;2022-11-15T18:58:56;5.07;;;3.38;;
36547;SDS011;22551;52.206;4.856;2022-11-15T19:04:02;7.63;;;3.65;;
36547;SDS011;22551;52.206;4.856;2022-11-15T19:09:08;5.85;;;3.40;;
36547;SDS011;22551;52.206;4.856;2022-11-15T19:14:13;8.70;;;3.70;;
36547;SDS011;22551;52.206;4.856;2022-11-15T19:19:18;8.25;;;3.90;;
36547;SDS011;22551;52.206;4.856;2022-11-15T19:24:24;10.68;;;3.90;;
36547;SDS011;22551;52.206;4.856;2022-11-15T19:29:28;7.70;;;3.83;;
36547;SDS011;22551;52.206;4.856;2022-11-15T19:34:31;6.20;;;3.78;;
36547;SDS011;22551;52.206;4.856;2022-11-15T19:39:34;13.05;;;5.15;;
36547;SDS011;22551;52.206;4.856;2022-11-15T19:44:40;7.77;;;4.50;;
36547;SDS011;22551;52.206;4.856;2022-11-15T19:49:43;7.10;;;4.43;;
36547;SDS011;22551;52.206;4.856;2022-11-15T19:54:48;6.38;;;3.85;;
36547;SDS011;22551;52.206;4.856;2022-11-15T19:59:50;6.80;;;4.20;;
36547;SDS011;22551;52.206;4.856;2022-11-15T20:04:52;8.90;;;4.70;;
36547;SDS011;22551;52.206;4.856;2022-11-15T20:09:56;11.13;;;4.65;;
36547;SDS011;22551;52.206;4.856;2022-11-15T20:14:59;7.13;;;4.03;;
36547;SDS011;22551;52.206;4.856;2022-11-15T20:20:01;9.30;;;5.10;;
36547;SDS011;22551;52.206;4.856;2022-11-15T20:25:06;9.85;;;5.43;;
36547;SDS011;22551;52.206;4.856;2022-11-15T20:30:09;10.50;;;5.97;;
36547;SDS011;22551;52.206;4.856;2022-11-15T20:35:12;8.73;;;5.43;;
36547;SDS011;22551;52.206;4.856;2022-11-15T20:40:16;11.55;;;6.15;;
36547;SDS011;22551;52.206;4.856;2022-11-15T20:45:18;12.77;;;6.18;;
36547;SDS011;22551;52.206;4.856;2022-11-15T20:50:21;8.70;;;5.25;;
36547;SDS011;22551;52.206;4.856;2022-11-15T20:55:24;11.63;;;6.07;;
36547;SDS011;22551;52.206;4.856;2022-11-15T21:00:26;9.90;;;5.20;;
36547;SDS011;22551;52.206;4.856;2022-11-15T21:05:29;11.10;;;5.60;;
36547;SDS011;22551;52.206;4.856;2022-11-15T21:10:32;12.20;;;6.70;;
36547;SDS011;22551;52.206;4.856;2022-11-15T21:15:53;9.93;;;5.72;;
36547;SDS011;22551;52.206;4.856;2022-11-15T21:21:00;8.73;;;5.57;;
36547;SDS011;22551;52.206;4.856;2022-11-15T21:26:05;10.65;;;5.32;;
36547;SDS011;22551;52.206;4.856;2022-11-15T21:31:07;9.43;;;5.57;;
36547;SDS011;22551;52.206;4.856;2022-11-15T21:36:09;12.15;;;5.32;;
36547;SDS011;22551;52.206;4.856;2022-11-15T21:41:13;10.40;;;5.60;;
36547;SDS011;22551;52.206;4.856;2022-11-15T21:46:18;10.68;;;5.75;;
36547;SDS011;22551;52.206;4.856;2022-11-15T21:51:22;9.15;;;6.10;;
36547;SDS011;22551;52.206;4.856;2022-11-15T21:56:27;13.77;;;7.53;;
36547;SDS011;22551;52.206;4.856;2022-11-15T22:01:30;12.70;;;7.10;;
36547;SDS011;22551;52.206;4.856;2022-11-15T22:06:49;12.75;;;6.80;;
36547;SDS011;22551;52.206;4.856;2022-11-15T22:11:53;10.90;;;6.18;;
36547;SDS011;22551;52.206;4.856;2022-11-15T22:16:55;11.65;;;6.13;;
36547;SDS011;22551;52.206;4.856;2022-11-15T22:21:57;10.98;;;6.28;;
36547;SDS011;22551;52.206;4.856;2022-11-15T22:27:01;10.55;;;6.32;;
36547;SDS011;22551;52.206;4.856;2022-11-15T22:32:03;10.55;;;6.60;;
36547;SDS011;22551;52.206;4.856;2022-11-15T22:37:05;12.18;;;7.63;;
36547;SDS011;22551;52.206;4.856;2022-11-15T22:42:09;13.13;;;6.93;;
36547;SDS011;22551;52.206;4.856;2022-11-15T22:47:12;11.13;;;7.30;;
36547;SDS011;22551;52.206;4.856;2022-11-15T22:52:17;15.60;;;8.05;;
36547;SDS011;22551;52.206;4.856;2022-11-15T22:57:20;11.77;;;7.45;;
36547;SDS011;22551;52.206;4.856;2022-11-15T23:07:26;11.55;;;7.80;;
36547;SDS011;22551;52.206;4.856;2022-11-15T23:12:30;14.80;;;7.47;;
36547;SDS011;22551;52.206;4.856;2022-11-15T23:17:50;13.50;;;8.13;;
36547;SDS011;22551;52.206;4.856;2022-11-15T23:22:52;11.23;;;6.80;;
36547;SDS011;22551;52.206;4.856;2022-11-15T23:27:58;11.93;;;7.43;;
36547;SDS011;22551;52.206;4.856;2022-11-15T23:33:02;14.82;;;8.10;;
36547;SDS011;22551;52.206;4.856;2022-11-15T23:38:22;12.15;;;7.95;;
36547;SDS011;22551;52.206;4.856;2022-11-15T23:43:25;13.23;;;8.30;;
36547;SDS011;22551;52.206;4.856;2022-11-15T23:48:28;15.98;;;8.65;;
36547;SDS011;22551;52.206;4.856;2022-11-15T23:53:30;16.25;;;8.55;;
36547;SDS011;22551;52.206;4.856;2022-11-15T23:58:34;12.15;;;8.18;;
